Time;durP1;ratioP1;P1;durP2;ratioP2;P2;SDS_P1;SDS_P2;PMS_P1;PMS_P2;Temp;Humidity;BMP_temperature;BMP_pressure;BME280_temperature;BME280_humidity;BME280_pressure;Samples;Min_cycle;Max_cycle;Signal;HPM_P1;HPM_P2
2021/07/25 00:00:05;;;;;;;35.08;23.73;;;18.40;99.90;;;;;;6136343;23;20014;-82
2021/07/25 00:02:33;;;;;;;36.40;22.27;;;18.40;99.90;;;;;;6153123;23;20064;-88
2021/07/25 00:05:00;;;;;;;28.90;20.48;;;18.40;99.90;;;;;;6155650;23;20014;-87
2021/07/25 00:07:26;;;;;;;24.05;17.55;;;18.40;99.90;;;;;;6163799;23;20019;-88
2021/07/25 00:09:52;;;;;;;26.73;19.00;;;18.40;99.90;;;;;;6126894;23;20374;-82
2021/07/25 00:12:18;;;;;;;28.35;19.17;;;18.40;99.90;;;;;;6136152;23;20018;-83
2021/07/25 00:14:44;;;;;;;25.13;17.23;;;18.40;99.90;;;;;;6163528;23;20331;-83
2021/07/25 00:17:10;;;;;;;27.92;18.85;;;18.40;99.90;;;;;;6163531;23;20009;-81
2021/07/25 00:19:36;;;;;;;25.40;17.65;;;18.40;99.90;;;;;;6154836;23;20081;-84
2021/07/25 00:22:06;;;;;;;28.70;18.95;;;18.40;99.90;;;;;;6163904;23;20418;-84
2021/07/25 00:24:34;;;;;;;29.00;20.00;;;18.40;99.90;;;;;;6163798;23;20039;-83
2021/07/25 00:27:01;;;;;;;30.98;20.10;;;18.40;99.90;;;;;;6137434;23;20430;-86
2021/07/25 00:29:30;;;;;;;29.13;20.42;;;18.40;99.90;;;;;;6152387;23;20013;-82
2021/07/25 00:32:02;;;;;;;29.52;19.55;;;18.40;99.90;;;;;;6153511;23;20048;-82
2021/07/25 00:34:32;;;;;;;27.67;20.75;;;18.40;99.90;;;;;;6162700;23;20009;-85
2021/07/25 00:36:58;;;;;;;27.83;19.05;;;18.40;99.90;;;;;;6127677;23;20017;-83
2021/07/25 00:39:25;;;;;;;26.48;19.60;;;18.40;99.90;;;;;;6137544;23;20010;-84
2021/07/25 00:41:52;;;;;;;29.88;20.58;;;18.40;99.90;;;;;;6162079;23;20439;-82
2021/07/25 00:44:18;;;;;;;26.25;18.80;;;18.40;99.90;;;;;;6129791;23;20018;-83
2021/07/25 00:46:57;;;;;;;36.60;21.33;;;18.50;99.90;;;;;;6160880;23;20472;-84
2021/07/25 00:49:23;;;;;;;22.73;16.10;;;18.50;99.90;;;;;;6162566;23;20442;-83
2021/07/25 00:51:50;;;;;;;21.30;16.77;;;18.40;99.90;;;;;;6163810;23;20017;-83
2021/07/25 00:54:16;;;;;;;21.08;15.32;;;18.40;99.90;;;;;;6101912;23;20086;-84
2021/07/25 00:56:45;;;;;;;21.25;15.82;;;18.40;99.90;;;;;;6164449;23;20272;-82
2021/07/25 00:59:11;;;;;;;20.08;14.50;;;18.40;99.90;;;;;;6157202;23;20415;-82
2021/07/25 01:01:37;;;;;;;21.42;14.57;;;18.30;99.90;;;;;;6151166;23;20449;-85
2021/07/25 01:04:23;;;;;;;17.25;13.38;;;18.30;99.90;;;;;;6160418;23;20017;-86
2021/07/25 01:06:48;;;;;;;;;;;18.30;99.90;;;;;;6162729;23;20747;-83
2021/07/25 01:10:03;;;;;;;19.95;15.35;;;18.40;99.90;;;;;;6162921;23;19912;-84
2021/07/25 01:12:44;;;;;;;17.60;13.38;;;18.30;99.90;;;;;;6073088;23;20143;-84
2021/07/25 01:15:17;;;;;;;15.60;11.98;;;18.40;99.90;;;;;;6062149;23;20026;-83
2021/07/25 01:17:43;;;;;;;11.82;9.55;;;18.30;99.90;;;;;;6039813;23;20511;-84
2021/07/25 01:20:10;;;;;;;12.55;9.43;;;18.30;99.90;;;;;;6040701;23;20107;-81
2021/07/25 01:22:42;;;;;;;11.30;8.75;;;18.40;99.90;;;;;;6073388;23;20023;-85
2021/07/25 01:25:11;;;;;;;13.13;9.85;;;18.50;99.90;;;;;;6048709;23;20018;-84
2021/07/25 01:27:55;;;;;;;14.65;11.63;;;18.50;99.90;;;;;;6039969;23;20321;-83
2021/07/25 01:30:24;;;;;;;20.67;13.75;;;18.50;99.90;;;;;;6063986;23;20022;-82
2021/07/25 01:32:53;;;;;;;22.50;13.50;;;18.40;99.90;;;;;;6073207;23;20483;-85
2021/07/25 01:35:21;;;;;;;20.10;13.40;;;18.30;99.90;;;;;;6049428;23;20015;-84
2021/07/25 01:37:47;;;;;;;17.77;11.80;;;18.30;99.90;;;;;;6041238;23;20031;-84
2021/07/25 01:40:20;;;;;;;18.25;13.32;;;18.20;99.90;;;;;;6081487;23;20030;-81
2021/07/25 01:42:45;;;;;;;20.10;12.93;;;18.20;99.90;;;;;;6132115;23;20009;-82
2021/07/25 01:45:12;;;;;;;21.98;14.55;;;18.20;99.90;;;;;;6180797;23;20012;-83
2021/07/25 01:47:38;;;;;;;18.20;13.05;;;18.20;99.90;;;;;;6164504;23;20014;-81
2021/07/25 01:50:04;;;;;;;17.85;12.82;;;18.20;99.90;;;;;;6171349;23;20139;-84
2021/07/25 01:52:31;;;;;;;11.50;8.80;;;18.20;99.90;;;;;;6160145;23;20028;-83
2021/07/25 01:54:57;;;;;;;17.55;11.45;;;18.20;99.90;;;;;;6168523;23;20065;-86
2021/07/25 01:57:24;;;;;;;21.38;15.05;;;18.30;99.90;;;;;;6165743;23;20117;-82
2021/07/25 01:59:50;;;;;;;21.25;14.18;;;18.30;99.90;;;;;;6127995;23;20024;-81
2021/07/25 02:02:15;;;;;;;19.02;12.68;;;18.30;99.90;;;;;;6160140;23;20339;-83
2021/07/25 02:04:41;;;;;;;19.10;12.32;;;18.30;99.90;;;;;;6159370;23;20013;-84
2021/07/25 02:07:07;;;;;;;17.60;12.65;;;18.40;99.90;;;;;;6129028;23;20064;-81
2021/07/25 02:09:37;;;;;;;22.25;14.73;;;18.50;99.90;;;;;;6129178;23;20013;-82
2021/07/25 02:12:05;;;;;;;24.17;17.08;;;18.50;99.90;;;;;;6162035;23;20462;-82
2021/07/25 02:14:31;;;;;;;30.40;19.27;;;18.60;99.90;;;;;;6155864;23;20394;-82
2021/07/25 02:16:58;;;;;;;36.22;21.55;;;18.60;99.90;;;;;;6154834;23;20009;-85
2021/07/25 02:19:24;;;;;;;42.70;24.77;;;18.70;99.90;;;;;;6165483;23;20045;-86
2021/07/25 02:21:49;;;;;;;42.47;26.80;;;18.70;99.90;;;;;;6128001;23;20466;-84
2021/07/25 02:24:15;;;;;;;41.33;25.88;;;18.70;99.90;;;;;;6128201;23;20017;-84
2021/07/25 02:26:41;;;;;;;42.08;27.30;;;18.70;99.90;;;;;;6165014;23;20022;-85
2021/07/25 02:29:06;;;;;;;47.50;28.08;;;18.70;99.90;;;;;;6129497;23;20399;-82
2021/07/25 02:31:32;;;;;;;38.58;23.08;;;18.70;99.90;;;;;;6127949;23;20497;-84
2021/07/25 02:33:58;;;;;;;36.08;23.08;;;18.80;99.90;;;;;;6163948;23;20044;-82
2021/07/25 02:36:23;;;;;;;32.33;22.08;;;18.80;99.90;;;;;;6128161;23;20327;-85
2021/07/25 02:38:49;;;;;;;37.58;24.25;;;18.80;99.90;;;;;;6128803;23;20151;-82
2021/07/25 02:41:15;;;;;;;38.92;24.23;;;18.80;99.90;;;;;;6128802;23;20415;-84
2021/07/25 02:43:41;;;;;;;40.47;25.30;;;18.80;99.90;;;;;;6127694;23;20017;-83
2021/07/25 02:46:07;;;;;;;36.55;24.58;;;18.80;99.90;;;;;;6138659;23;20288;-83
2021/07/25 02:48:32;;;;;;;29.73;22.48;;;18.80;99.90;;;;;;6154474;23;20017;-85
2021/07/25 02:51:00;;;;;;;32.15;21.30;;;18.80;99.90;;;;;;6162994;23;20014;-83
2021/07/25 02:53:26;;;;;;;12.70;9.27;;;18.80;99.90;;;;;;6163645;23;20021;-83
2021/07/25 02:55:55;;;;;;;8.68;7.05;;;18.70;99.90;;;;;;6122473;23;20068;-83
2021/07/25 02:58:21;;;;;;;6.57;5.60;;;18.70;99.90;;;;;;6132298;23;20013;-85
2021/07/25 03:00:48;;;;;;;8.10;5.95;;;18.60;99.90;;;;;;6131585;23;20010;-83
2021/07/25 03:03:14;;;;;;;8.30;6.25;;;18.60;99.90;;;;;;6131237;23;20025;-83
2021/07/25 03:05:40;;;;;;;7.20;6.10;;;18.50;99.90;;;;;;6122533;23;20029;-83
2021/07/25 03:08:06;;;;;;;7.82;6.25;;;18.50;99.90;;;;;;6133485;23;20038;-83
2021/07/25 03:10:32;;;;;;;8.05;6.32;;;18.50;99.90;;;;;;6125870;23;20454;-82
2021/07/25 03:12:57;;;;;;;9.52;5.43;;;18.40;99.90;;;;;;6123402;23;20021;-82
2021/07/25 03:15:23;;;;;;;10.30;5.80;;;18.40;99.90;;;;;;6122155;23;20022;-82
2021/07/25 03:17:49;;;;;;;7.28;5.13;;;18.40;99.90;;;;;;6125253;23;20014;-81
2021/07/25 03:20:15;;;;;;;7.00;5.97;;;18.30;99.90;;;;;;6125427;23;20009;-83
2021/07/25 03:22:41;;;;;;;4.57;4.13;;;18.30;99.90;;;;;;6123584;23;20051;-82
2021/07/25 03:25:08;;;;;;;5.50;4.05;;;18.30;99.90;;;;;;6132420;23;20017;-84
2021/07/25 03:27:33;;;;;;;4.10;3.08;;;18.20;99.90;;;;;;6135292;23;20374;-80
2021/07/25 03:29:59;;;;;;;2.78;2.22;;;18.20;99.90;;;;;;6125281;23;20017;-83
2021/07/25 03:32:25;;;;;;;2.58;2.38;;;18.00;99.90;;;;;;6123208;23;20434;-83
2021/07/25 03:34:52;;;;;;;2.75;2.45;;;17.90;99.90;;;;;;6123213;23;20084;-81
2021/07/25 03:37:19;;;;;;;3.03;2.72;;;18.00;99.90;;;;;;6124709;23;20026;-83
2021/07/25 03:39:47;;;;;;;4.70;3.10;;;17.90;99.90;;;;;;6123210;23;20025;-82
2021/07/25 03:42:14;;;;;;;4.07;3.50;;;17.90;99.90;;;;;;6135559;23;20018;-84
2021/07/25 03:44:41;;;;;;;6.65;4.72;;;17.80;99.90;;;;;;6122996;23;20307;-84
2021/07/25 03:47:08;;;;;;;8.65;6.15;;;17.80;99.90;;;;;;6134100;23;20025;-85
2021/07/25 03:49:33;;;;;;;7.18;6.45;;;17.80;99.90;;;;;;6134518;23;20514;-82
2021/07/25 03:51:59;;;;;;;6.40;5.53;;;17.70;99.90;;;;;;6123274;23;20053;-84
2021/07/25 03:54:26;;;;;;;6.35;5.63;;;17.60;99.90;;;;;;6124981;23;20014;-84
2021/07/25 03:56:52;;;;;;;9.07;5.07;;;17.60;99.90;;;;;;6162516;23;20018;-84
2021/07/25 03:59:17;;;;;;;6.47;4.75;;;17.50;99.90;;;;;;6128265;23;20048;-84
2021/07/25 04:01:43;;;;;;;8.18;6.55;;;17.50;99.90;;;;;;6161420;23;20025;-82
2021/07/25 04:04:09;;;;;;;8.73;6.93;;;17.50;99.90;;;;;;6160093;23;20088;-82
2021/07/25 04:06:35;;;;;;;11.60;7.20;;;17.40;99.90;;;;;;6153952;23;20868;-82
2021/07/25 04:09:00;;;;;;;8.68;7.15;;;17.50;99.90;;;;;;6127072;23;20401;-82
2021/07/25 04:11:28;;;;;;;9.02;7.50;;;17.50;99.90;;;;;;6128850;23;20089;-84
2021/07/25 04:13:54;;;;;;;14.98;7.88;;;17.40;99.90;;;;;;6137914;23;20367;-84
2021/07/25 04:16:20;;;;;;;11.75;8.98;;;17.40;99.90;;;;;;6153844;23;20065;-82
2021/07/25 04:18:45;;;;;;;10.30;8.70;;;17.40;99.90;;;;;;6136057;23;20017;-83
2021/07/25 04:21:11;;;;;;;13.57;9.10;;;17.40;99.90;;;;;;6163165;23;20147;-81
2021/07/25 04:23:41;;;;;;;10.23;8.27;;;17.40;99.90;;;;;;6162889;23;20014;-81
2021/07/25 04:26:08;;;;;;;11.48;9.25;;;17.40;99.90;;;;;;6163626;23;20037;-81
2021/07/25 04:28:34;;;;;;;12.23;9.07;;;17.40;99.90;;;;;;6128781;23;20394;-82
2021/07/25 04:31:03;;;;;;;11.50;8.98;;;17.50;99.90;;;;;;6154062;23;20334;-81
2021/07/25 04:33:30;;;;;;;7.45;6.50;;;17.50;99.90;;;;;;6136865;23;20080;-83
2021/07/25 04:35:56;;;;;;;11.90;7.20;;;17.60;99.90;;;;;;6151814;23;20017;-82
2021/07/25 04:38:22;;;;;;;11.65;8.73;;;17.60;99.90;;;;;;6136826;23;20021;-82
2021/07/25 04:41:01;;;;;;;9.23;7.57;;;17.70;99.90;;;;;;6152391;23;20020;-83
2021/07/25 04:43:30;;;;;;;12.18;7.70;;;17.70;99.90;;;;;;6160109;23;20431;-82
2021/07/25 04:46:04;;;;;;;7.70;6.18;;;17.70;99.90;;;;;;6126723;23;20033;-83
2021/07/25 04:48:41;;;;;;;7.47;6.22;;;17.70;99.90;;;;;;6135967;23;20442;-84
2021/07/25 04:51:09;;;;;;;6.85;6.15;;;17.80;99.90;;;;;;6125061;23;20464;-83
2021/07/25 04:53:40;;;;;;;9.95;7.40;;;17.80;99.90;;;;;;6151065;23;20018;-83
2021/07/25 04:56:12;;;;;;;11.43;7.43;;;17.90;99.90;;;;;;6120843;23;20014;-83
2021/07/25 04:58:51;;;;;;;11.25;7.30;;;17.90;99.90;;;;;;6132557;23;20384;-81
2021/07/25 05:01:27;;;;;;;8.98;7.28;;;17.90;99.90;;;;;;6120820;23;20386;-82
2021/07/25 05:03:53;;;;;;;10.88;8.77;;;17.90;99.90;;;;;;6127403;23;20033;-82
2021/07/25 05:06:22;;;;;;;10.30;7.60;;;18.00;99.90;;;;;;6094539;23;20010;-82
2021/07/25 05:08:49;;;;;;;13.50;8.93;;;18.00;99.90;;;;;;6119656;23;20101;-83
2021/07/25 05:11:20;;;;;;;11.10;8.40;;;18.00;99.90;;;;;;6121093;23;20061;-83
2021/07/25 05:13:48;;;;;;;10.45;7.13;;;18.00;99.90;;;;;;6123914;23;20871;-82
2021/07/25 05:16:29;;;;;;;10.68;7.78;;;18.10;99.90;;;;;;6137076;23;20112;-83
2021/07/25 05:19:10;;;;;;;11.25;7.88;;;18.20;99.90;;;;;;6145403;23;20116;-83
2021/07/25 05:21:47;;;;;;;12.65;7.70;;;18.20;99.90;;;;;;6155375;23;20014;-83
2021/07/25 05:24:15;;;;;;;9.65;7.57;;;18.20;99.90;;;;;;6156593;23;20029;-85
2021/07/25 05:26:46;;;;;;;10.35;7.05;;;18.20;99.90;;;;;;6146059;23;20018;-84
2021/07/25 05:29:12;;;;;;;9.23;6.38;;;18.30;99.90;;;;;;6145664;23;20008;-81
2021/07/25 05:31:38;;;;;;;10.15;6.32;;;18.30;99.90;;;;;;6158439;23;20028;-82
2021/07/25 05:34:04;;;;;;;8.95;6.60;;;18.30;99.90;;;;;;6137751;23;20020;-85
2021/07/25 05:36:30;;;;;;;9.02;7.07;;;18.30;99.90;;;;;;6123390;23;20010;-85
2021/07/25 05:38:56;;;;;;;9.13;7.70;;;18.30;99.90;;;;;;6125115;23;20010;-84
2021/07/25 05:41:22;;;;;;;9.75;7.95;;;18.30;99.90;;;;;;6123697;23;20563;-83
2021/07/25 05:43:48;;;;;;;11.73;8.70;;;18.30;99.90;;;;;;6129820;23;20378;-81
2021/07/25 05:46:14;;;;;;;10.52;8.82;;;18.30;99.90;;;;;;6136612;23;20041;-82
2021/07/25 05:48:40;;;;;;;11.77;9.73;;;18.40;99.90;;;;;;6123923;23;20014;-82
2021/07/25 05:51:06;;;;;;;12.27;9.40;;;18.50;99.90;;;;;;6126018;23;20010;-83
2021/07/25 05:53:32;;;;;;;13.18;9.45;;;18.50;99.90;;;;;;6123294;23;20102;-83
2021/07/25 05:55:58;;;;;;;14.27;8.88;;;18.60;99.90;;;;;;6127097;23;20041;-84
2021/07/25 05:58:25;;;;;;;11.07;8.65;;;18.70;99.90;;;;;;6131805;23;20021;-82
2021/07/25 06:00:52;;;;;;;11.90;8.93;;;18.80;99.90;;;;;;6125198;23;20014;-82
2021/07/25 06:03:18;;;;;;;10.48;8.45;;;18.90;99.90;;;;;;6124606;23;20057;-79
2021/07/25 06:05:44;;;;;;;10.88;8.65;;;19.00;99.90;;;;;;6125980;23;20025;-81
2021/07/25 06:08:12;;;;;;;13.13;9.88;;;19.00;99.90;;;;;;6133739;23;20049;-82
2021/07/25 06:10:43;;;;;;;14.68;11.30;;;19.10;99.90;;;;;;6123876;23;20014;-81
2021/07/25 06:13:09;;;;;;;18.10;11.90;;;19.20;99.90;;;;;;6134795;23;20018;-82
2021/07/25 06:15:35;;;;;;;13.93;11.15;;;19.20;99.90;;;;;;6135869;23;20096;-82
2021/07/25 06:18:06;;;;;;;19.02;11.98;;;19.20;99.90;;;;;;6134313;23;20010;-82
2021/07/25 06:20:32;;;;;;;17.23;12.40;;;19.20;99.90;;;;;;6125442;23;20018;-82
2021/07/25 06:22:59;;;;;;;15.75;11.73;;;19.20;99.90;;;;;;6123385;23;20025;-81
2021/07/25 06:25:31;;;;;;;14.95;11.55;;;19.20;99.90;;;;;;6124173;23;20081;-82
2021/07/25 06:28:01;;;;;;;16.40;11.57;;;19.20;99.90;;;;;;6133787;23;20339;-81
2021/07/25 06:30:28;;;;;;;17.60;11.95;;;19.10;99.90;;;;;;6125385;23;20014;-81
2021/07/25 06:33:16;;;;;;;17.13;11.52;;;19.20;99.90;;;;;;6134640;23;20014;-84
2021/07/25 06:35:51;;;;;;;15.18;11.70;;;19.30;99.90;;;;;;6123295;23;20350;-85
2021/07/25 06:38:25;;;;;;;18.92;12.25;;;19.40;99.90;;;;;;6123372;23;20856;-84
2021/07/25 06:40:57;;;;;;;14.43;10.73;;;19.40;99.90;;;;;;6100303;23;20316;-84
2021/07/25 06:43:24;;;;;;;13.95;10.70;;;19.40;99.90;;;;;;6133763;23;20018;-84
2021/07/25 06:45:50;;;;;;;13.20;10.20;;;19.30;99.90;;;;;;6123517;23;20093;-84
2021/07/25 06:48:29;;;;;;;14.93;10.52;;;19.20;99.90;;;;;;6122994;23;20400;-84
2021/07/25 06:51:04;;;;;;;17.88;12.98;;;19.20;99.90;;;;;;6124166;23;20032;-84
2021/07/25 06:53:35;;;;;;;18.75;13.32;;;19.30;99.90;;;;;;6124100;23;20465;-84
2021/07/25 06:56:05;;;;;;;22.35;14.40;;;19.30;99.90;;;;;;6117978;23;20115;-84
2021/07/25 06:58:32;;;;;;;19.70;14.48;;;19.40;99.90;;;;;;6128632;23;20022;-85
2021/07/25 07:00:58;;;;;;;19.08;14.40;;;19.40;99.90;;;;;;6104462;23;20018;-83
2021/07/25 07:03:24;;;;;;;18.58;14.65;;;19.50;99.90;;;;;;6129126;23;20350;-84
2021/07/25 07:05:50;;;;;;;19.92;13.15;;;19.50;99.90;;;;;;6139741;23;20029;-84
2021/07/25 07:08:15;;;;;;;17.83;13.43;;;19.40;99.90;;;;;;6139318;23;20020;-85
2021/07/25 07:10:43;;;;;;;18.65;13.50;;;19.40;99.90;;;;;;6128883;23;20019;-83
2021/07/25 07:13:12;;;;;;;19.23;13.68;;;19.40;99.90;;;;;;6128569;23;20018;-83
2021/07/25 07:15:40;;;;;;;15.65;12.52;;;19.40;99.90;;;;;;6127113;23;20026;-83
2021/07/25 07:18:06;;;;;;;16.70;12.32;;;19.40;99.90;;;;;;6127582;23;20021;-87
2021/07/25 07:20:32;;;;;;;15.93;11.27;;;19.50;99.90;;;;;;6154548;23;20103;-80
2021/07/25 07:23:03;;;;;;;15.77;10.90;;;19.60;99.90;;;;;;6164304;23;20020;-86
2021/07/25 07:25:35;;;;;;;13.23;10.60;;;19.80;99.90;;;;;;6154073;23;20093;-83
2021/07/25 07:28:02;;;;;;;12.85;9.45;;;19.90;99.90;;;;;;6128464;23;20045;-79
2021/07/25 07:30:28;;;;;;;11.68;8.75;;;20.20;99.90;;;;;;6128199;23;20132;-84
2021/07/25 07:32:54;;;;;;;9.13;8.13;;;20.40;99.90;;;;;;6163448;23;20028;-84
2021/07/25 07:35:24;;;;;;;12.38;7.68;;;20.60;99.90;;;;;;6128583;23;20018;-83
2021/07/25 07:37:50;;;;;;;11.35;8.10;;;20.60;99.90;;;;;;6103414;23;20037;-83
2021/07/25 07:40:18;;;;;;;9.95;8.23;;;20.50;99.90;;;;;;6129541;23;20033;-83
2021/07/25 07:42:44;;;;;;;9.63;7.53;;;20.50;99.90;;;;;;6129360;23;20025;-84
2021/07/25 07:45:11;;;;;;;9.43;7.38;;;20.50;99.90;;;;;;6131969;23;20033;-83
2021/07/25 07:47:37;;;;;;;8.80;6.85;;;20.60;99.90;;;;;;6164857;23;20010;-83
2021/07/25 07:50:03;;;;;;;7.60;6.40;;;20.70;99.90;;;;;;6165858;23;20014;-83
2021/07/25 07:52:29;;;;;;;8.60;6.60;;;20.80;99.90;;;;;;6164562;23;20378;-82
2021/07/25 07:54:54;;;;;;;7.80;7.00;;;20.70;99.90;;;;;;6128285;23;20022;-83
2021/07/25 07:57:20;;;;;;;10.98;6.00;;;20.80;99.90;;;;;;6104037;23;20014;-82
2021/07/25 07:59:47;;;;;;;8.20;6.07;;;20.90;99.90;;;;;;6128128;23;20037;-82
2021/07/25 08:02:16;;;;;;;6.53;5.28;;;21.10;99.90;;;;;;6151489;23;20362;-82
2021/07/25 08:04:42;;;;;;;8.82;5.82;;;21.10;99.90;;;;;;6102393;23;20017;-81
2021/07/25 08:07:07;;;;;;;8.35;5.70;;;21.10;99.90;;;;;;6163554;23;20010;-82
2021/07/25 08:09:33;;;;;;;8.43;5.85;;;21.10;99.90;;;;;;6128068;23;20224;-82
2021/07/25 08:11:59;;;;;;;6.78;5.95;;;21.30;99.90;;;;;;6127744;23;20018;-81
2021/07/25 08:14:25;;;;;;;9.73;6.55;;;21.40;99.90;;;;;;6127628;23;20133;-82
2021/07/25 08:16:50;;;;;;;8.50;6.68;;;21.30;99.90;;;;;;6128016;23;20017;-81
2021/07/25 08:19:16;;;;;;;9.80;7.20;;;21.20;99.90;;;;;;6154388;23;20299;-81
2021/07/25 08:21:43;;;;;;;10.23;7.53;;;21.20;99.90;;;;;;6163630;23;20048;-81
2021/07/25 08:24:11;;;;;;;10.23;8.10;;;21.30;99.90;;;;;;6127275;23;20032;-82
2021/07/25 08:26:37;;;;;;;11.60;8.75;;;21.30;99.90;;;;;;6137256;23;20013;-81
2021/07/25 08:29:05;;;;;;;15.48;8.90;;;21.30;99.90;;;;;;6103473;23;20059;-82
2021/07/25 08:31:37;;;;;;;12.52;8.75;;;21.30;99.90;;;;;;6126067;23;20345;-84
2021/07/25 08:38:30;;;;;;;12.85;8.15;;;21.50;99.90;;;;;;6063949;23;20113;-83
2021/07/25 08:41:16;;;;;;;10.43;7.90;;;21.60;99.90;;;;;;6049341;23;20015;-82
2021/07/25 08:43:45;;;;;;;12.27;7.85;;;21.60;99.90;;;;;;6015612;23;20078;-82
2021/07/25 08:46:21;;;;;;;10.52;7.95;;;21.60;99.90;;;;;;6063574;23;20022;-82
2021/07/25 08:48:52;;;;;;;11.63;8.38;;;21.70;99.90;;;;;;6044410;23;20089;-83
2021/07/25 08:51:24;;;;;;;12.68;8.15;;;21.60;99.90;;;;;;6016334;23;20217;-84
2021/07/25 08:53:59;;;;;;;13.90;8.57;;;21.70;99.90;;;;;;6044319;23;20019;-84
2021/07/25 08:56:33;;;;;;;12.25;8.45;;;21.70;99.90;;;;;;6041683;23;20018;-85
2021/07/25 08:59:17;;;;;;;9.27;8.13;;;21.80;99.90;;;;;;6041235;23;20019;-84
2021/07/25 09:01:48;;;;;;;12.40;8.18;;;21.90;99.90;;;;;;6044753;23;20037;-85
2021/07/25 09:04:14;;;;;;;11.80;8.18;;;21.90;99.90;;;;;;6064948;23;20041;-82
2021/07/25 09:06:50;;;;;;;11.70;7.88;;;21.90;99.90;;;;;;6075712;23;20668;-83
2021/07/25 09:09:19;;;;;;;11.55;7.47;;;22.00;99.90;;;;;;6066604;23;20015;-82
2021/07/25 09:11:47;;;;;;;9.85;7.65;;;22.10;99.90;;;;;;6065627;23;20381;-82
2021/07/25 09:14:13;;;;;;;11.95;8.10;;;22.10;99.90;;;;;;6092419;23;20092;-82
2021/07/25 09:16:40;;;;;;;8.82;7.65;;;22.20;99.90;;;;;;6100076;23;20092;-82
2021/07/25 09:19:07;;;;;;;9.35;7.18;;;22.40;99.90;;;;;;6126707;23;20018;-82
2021/07/25 09:21:50;;;;;;;10.15;7.30;;;22.60;99.90;;;;;;6135702;23;20017;-82
2021/07/25 09:24:29;;;;;;;8.88;7.32;;;22.50;99.90;;;;;;6099429;23;20439;-82
2021/07/25 09:27:00;;;;;;;9.60;7.43;;;22.70;99.90;;;;;;6136788;23;20405;-82
2021/07/25 09:29:28;;;;;;;11.77;7.40;;;22.80;99.90;;;;;;6100314;23;20018;-82
2021/07/25 09:32:10;;;;;;;9.85;6.95;;;22.80;99.90;;;;;;6135259;23;20018;-83
2021/07/25 09:34:41;;;;;;;8.57;6.88;;;22.90;99.90;;;;;;6124278;23;20025;-82
2021/07/25 09:37:18;;;;;;;8.93;7.72;;;22.90;99.90;;;;;;6135500;23;20014;-82
2021/07/25 09:39:51;;;;;;;9.38;7.80;;;22.70;99.90;;;;;;6100001;23;20041;-82
2021/07/25 09:42:29;;;;;;;12.18;8.10;;;22.40;99.90;;;;;;6100479;23;20091;-82
2021/07/25 09:44:57;;;;;;;11.75;7.85;;;22.20;99.90;;;;;;6100609;23;20072;-82
2021/07/25 09:47:41;;;;;;;8.75;7.70;;;22.20;99.90;;;;;;6098751;23;20029;-82
2021/07/25 09:50:08;;;;;;;9.83;7.90;;;22.10;99.90;;;;;;6100492;23;20021;-81
2021/07/25 09:52:35;;;;;;;10.57;7.82;;;21.80;99.90;;;;;;6110234;23;20018;-81
2021/07/25 09:55:04;;;;;;;10.30;7.97;;;21.80;99.90;;;;;;6105730;23;20076;-82
2021/07/25 09:57:31;;;;;;;10.50;8.13;;;21.80;99.90;;;;;;6128658;23;20453;-81
2021/07/25 10:00:05;;;;;;;10.07;8.10;;;21.80;99.90;;;;;;6160252;23;20013;-83
2021/07/25 10:02:38;;;;;;;12.35;8.30;;;21.80;99.90;;;;;;6154994;23;20025;-82
2021/07/25 10:05:17;;;;;;;12.70;8.43;;;21.80;99.90;;;;;;6129940;23;20017;-82
2021/07/25 10:07:45;;;;;;;10.15;8.70;;;21.90;99.90;;;;;;6153678;23;20076;-81
2021/07/25 10:10:13;;;;;;;10.82;8.70;;;22.10;99.90;;;;;;6155120;23;20370;-82
2021/07/25 10:12:40;;;;;;;11.27;8.63;;;22.20;99.90;;;;;;6155370;23;20009;-81
2021/07/25 10:15:11;;;;;;;14.10;9.30;;;22.50;99.90;;;;;;6153618;23;20068;-82
2021/07/25 10:17:43;;;;;;;15.25;10.00;;;22.80;99.90;;;;;;6164487;23;20331;-82
2021/07/25 10:20:16;;;;;;;15.23;11.23;;;23.00;99.90;;;;;;6129296;23;20014;-81
2021/07/25 10:22:46;;;;;;;17.80;12.20;;;23.00;99.90;;;;;;6129457;23;20449;-83
2021/07/25 10:25:16;;;;;;;14.02;11.52;;;23.00;99.90;;;;;;6129749;23;20030;-81
2021/07/25 10:27:45;;;;;;;18.63;13.57;;;23.10;99.90;;;;;;6129196;23;20028;-81
2021/07/25 10:30:12;;;;;;;17.13;14.77;;;22.90;99.90;;;;;;6128488;23;20020;-82
2021/07/25 10:32:39;;;;;;;21.25;13.63;;;22.90;99.90;;;;;;6128241;23;20021;-82
2021/07/25 10:35:08;;;;;;;16.00;12.93;;;22.80;99.90;;;;;;6165187;23;20036;-85
2021/07/25 10:37:39;;;;;;;18.05;14.15;;;23.00;99.90;;;;;;6138925;23;20202;-83
2021/07/25 10:40:07;;;;;;;18.88;14.10;;;23.30;99.90;;;;;;6105053;23;20327;-84
2021/07/25 10:42:52;;;;;;;19.23;14.07;;;23.20;99.90;;;;;;6129075;23;20025;-83
2021/07/25 10:45:20;;;;;;;20.35;14.60;;;23.20;99.90;;;;;;6069029;23;20034;-83
2021/07/25 10:47:47;;;;;;;18.38;14.73;;;23.10;99.90;;;;;;6044715;23;20026;-82
2021/07/25 10:50:21;;;;;;;21.88;14.85;;;23.20;99.90;;;;;;6045095;23;20125;-83
2021/07/25 10:53:02;;;;;;;21.10;15.25;;;23.20;99.90;;;;;;6069656;23;20021;-84
2021/07/25 10:55:42;;;;;;;20.00;15.52;;;23.30;99.90;;;;;;6069136;23;20085;-83
2021/07/25 10:58:21;;;;;;;22.02;15.73;;;23.60;99.90;;;;;;6103359;23;20046;-84
2021/07/25 11:00:51;;;;;;;21.08;14.77;;;24.20;99.90;;;;;;6045475;23;20033;-83
2021/07/25 11:03:29;;;;;;;17.02;13.98;;;24.60;99.90;;;;;;6101599;23;20018;-84
2021/07/25 11:06:13;;;;;;;22.17;14.70;;;24.80;99.90;;;;;;6092610;23;20482;-82
2021/07/25 11:08:44;;;;;;;18.80;15.00;;;24.80;99.90;;;;;;6102889;23;20396;-82
2021/07/25 11:11:25;;;;;;;20.45;16.58;;;24.90;99.90;;;;;;6068748;23;20024;-82
2021/07/25 11:13:51;;;;;;;20.75;17.25;;;24.60;99.90;;;;;;6102698;23;20396;-82
2021/07/25 11:16:30;;;;;;;21.65;17.83;;;24.40;99.90;;;;;;6129103;23;20021;-83
2021/07/25 11:18:56;;;;;;;20.98;17.48;;;24.40;99.90;;;;;;6104877;23;20064;-83
2021/07/25 11:21:36;;;;;;;19.98;16.60;;;24.10;99.90;;;;;;6155622;23;20006;-83
2021/07/25 11:24:23;;;;;;;21.23;15.55;;;23.90;99.90;;;;;;6164973;23;20032;-83
2021/07/25 11:27:02;;;;;;;18.73;15.00;;;24.20;99.90;;;;;;6128329;23;20045;-83
2021/07/25 11:29:33;;;;;;;22.63;15.63;;;24.50;99.90;;;;;;6155902;23;20037;-83
2021/07/25 11:32:01;;;;;;;19.35;15.18;;;24.60;99.90;;;;;;6128816;23;20016;-83
2021/07/25 11:34:36;;;;;;;22.25;14.82;;;24.40;99.90;;;;;;6153505;23;20014;-84
2021/07/25 11:37:08;;;;;;;19.77;15.10;;;24.10;99.90;;;;;;6152479;23;20017;-83
2021/07/25 11:39:35;;;;;;;19.95;15.02;;;23.80;99.90;;;;;;6138150;23;20086;-85
2021/07/25 11:42:07;;;;;;;19.65;15.23;;;23.70;99.90;;;;;;6179250;23;20045;-85
2021/07/25 11:44:34;;;;;;;19.35;14.32;;;23.80;99.90;;;;;;6130525;23;20009;-82
2021/07/25 11:47:03;;;;;;;19.92;15.02;;;23.80;99.90;;;;;;6154032;23;20041;-83
2021/07/25 11:49:38;;;;;;;23.88;16.33;;;23.90;99.90;;;;;;6179184;23;20068;-83
2021/07/25 11:52:12;;;;;;;21.73;15.13;;;23.90;99.90;;;;;;6112909;23;20040;-84
2021/07/25 11:54:40;;;;;;;20.48;14.70;;;24.00;99.90;;;;;;6164636;23;20013;-83
2021/07/25 11:57:12;;;;;;;20.42;15.90;;;24.10;99.90;;;;;;6152770;23;20489;-84
2021/07/25 11:59:51;;;;;;;20.50;15.77;;;24.10;99.90;;;;;;6129057;23;20018;-85
2021/07/25 12:02:33;;;;;;;19.15;15.13;;;24.20;99.90;;;;;;6128428;23;20485;-83
2021/07/25 12:05:00;;;;;;;20.60;14.55;;;24.40;99.90;;;;;;6127899;23;20032;-83
2021/07/25 12:07:34;;;;;;;20.75;13.88;;;24.50;99.90;;;;;;6153813;23;20021;-81
2021/07/25 12:10:01;;;;;;;21.08;14.57;;;24.60;99.90;;;;;;6128372;23;20370;-82
2021/07/25 12:12:29;;;;;;;19.67;13.88;;;24.70;99.90;;;;;;6154160;23;20018;-82
2021/07/25 12:15:00;;;;;;;17.10;13.10;;;24.80;99.90;;;;;;6128576;23;20100;-84
2021/07/25 12:17:50;;;;;;;17.40;13.65;;;24.80;99.90;;;;;;6138430;23;20013;-85
2021/07/25 12:20:21;;;;;;;16.52;12.90;;;25.00;99.90;;;;;;6155226;23;20009;-84
2021/07/25 12:22:47;;;;;;;14.25;12.65;;;25.20;99.90;;;;;;6138573;23;20021;-84
2021/07/25 12:25:13;;;;;;;16.48;12.13;;;25.40;99.90;;;;;;6165163;23;20046;-83
2021/07/25 12:27:39;;;;;;;15.25;11.38;;;25.40;99.90;;;;;;6128090;23;20037;-83
2021/07/25 12:30:18;;;;;;;16.92;12.23;;;25.60;99.90;;;;;;6128603;23;20338;-83
2021/07/25 12:33:02;;;;;;;15.43;10.77;;;25.70;99.90;;;;;;6127016;23;20032;-84
2021/07/25 12:35:43;;;;;;;17.10;11.93;;;25.80;99.90;;;;;;6127709;23;20076;-83
2021/07/25 12:38:16;;;;;;;14.32;11.60;;;25.80;99.90;;;;;;6137752;23;20014;-82
2021/07/25 12:40:45;;;;;;;14.20;11.15;;;25.80;99.90;;;;;;6152957;23;20312;-81
2021/07/25 12:43:16;;;;;;;15.57;10.93;;;25.80;99.90;;;;;;6153672;23;20324;-82
2021/07/25 12:45:43;;;;;;;16.42;10.70;;;26.20;99.90;;;;;;6130774;23;20480;-83
2021/07/25 12:48:17;;;;;;;12.82;9.98;;;26.80;99.90;;;;;;6126839;23;20108;-82
2021/07/25 12:51:32;;;;;;;12.25;10.00;;;27.00;99.90;;;;;;6137408;23;20014;-83